createdAt,value
2022-11-25T00:01:07.537Z,95374.78
2022-11-25T00:03:36.611Z,95365.31
2022-11-25T00:06:15.656Z,95372.97
2022-11-25T00:08:44.647Z,95389.13
2022-11-25T00:11:13.854Z,95422.69
2022-11-25T00:13:42.841Z,95430.53
2022-11-25T00:16:14.040Z,95434.75
2022-11-25T00:18:45.573Z,95446.50
2022-11-25T00:21:15.824Z,95446.66
2022-11-25T00:23:43.622Z,95468.72
2022-11-25T00:26:13.480Z,95453.38
2022-11-25T00:28:42.988Z,95454.19
2022-11-25T00:31:14.058Z,95456.81
2022-11-25T00:33:42.512Z,95460.25
2022-11-25T00:36:20.266Z,95467.09
2022-11-25T00:38:48.714Z,95464.13
2022-11-25T00:41:33.905Z,95475.56
2022-11-25T00:44:19.384Z,95482.09
2022-11-25T00:46:48.644Z,95479.66
2022-11-25T00:49:17.123Z,95494.97
2022-11-25T00:51:45.004Z,95464.31
2022-11-25T00:54:13.059Z,95455.66
2022-11-25T00:56:41.153Z,95474.59
2022-11-25T00:59:09.876Z,95469.06
2022-11-25T01:01:38.161Z,95490.56
2022-11-25T01:04:08.508Z,95497.44
2022-11-25T01:06:37.856Z,95487.66
2022-11-25T01:09:06.958Z,95494.81
2022-11-25T01:11:35.123Z,95484.69
2022-11-25T01:14:03.081Z,95486.50
2022-11-25T01:16:31.758Z,95479.66
2022-11-25T01:19:00.852Z,95470.00
2022-11-25T01:21:32.457Z,95479.47
2022-11-25T01:24:01.657Z,95505.91
2022-11-25T01:26:30.807Z,95533.16
2022-11-25T01:29:01.369Z,95499.41
2022-11-25T01:31:32.264Z,95502.66
2022-11-25T01:34:02.535Z,95508.53
2022-11-25T01:36:32.261Z,95498.25
2022-11-25T01:39:01.611Z,95495.78
2022-11-25T01:41:32.257Z,95515.22
2022-11-25T01:44:19.398Z,95495.78
2022-11-25T01:47:04.613Z,95494.16
2022-11-25T01:49:37.742Z,95508.53
2022-11-25T01:52:14.026Z,95508.34
2022-11-25T01:54:48.002Z,95522.88
2022-11-25T01:57:21.714Z,95488.94
2022-11-25T01:59:53.475Z,95499.88
2022-11-25T02:02:22.437Z,95505.09
2022-11-25T02:04:50.649Z,95499.06
2022-11-25T02:07:27.777Z,95526.47
2022-11-25T02:09:57.228Z,95496.59
2022-11-25T02:12:25.446Z,95497.44
2022-11-25T02:14:56.137Z,95522.88
2022-11-25T02:17:24.103Z,95535.78
2022-11-25T02:20:00.360Z,95531.38
2022-11-25T02:22:42.746Z,95526.31
2022-11-25T02:25:16.222Z,95539.84
2022-11-25T02:27:47.213Z,95543.09
2022-11-25T02:30:15.439Z,95539.84
2022-11-25T02:32:47.394Z,95543.09
2022-11-25T02:35:27.488Z,95551.94
2022-11-25T02:37:58.082Z,95538.22
2022-11-25T02:40:28.997Z,95526.81
2022-11-25T02:42:59.791Z,95527.28
2022-11-25T02:45:34.457Z,95516.19
2022-11-25T02:48:02.671Z,95505.91
2022-11-25T02:50:30.431Z,95504.28
2022-11-25T02:52:58.266Z,95506.72
2022-11-25T02:55:27.674Z,95508.53
2022-11-25T02:57:55.458Z,95511.13
2022-11-25T03:00:23.651Z,95511.13
2022-11-25T03:02:54.520Z,95511.13
2022-11-25T03:05:22.993Z,95489.13
2022-11-25T03:07:51.239Z,95481.44
2022-11-25T03:10:19.571Z,95489.28
2022-11-25T03:12:49.132Z,95496.78
2022-11-25T03:15:17.528Z,95503.63
2022-11-25T03:17:45.568Z,95475.56
2022-11-25T03:20:15.200Z,95483.88
2022-11-25T03:22:43.997Z,95482.44
2022-11-25T03:25:12.643Z,95466.28
2022-11-25T03:27:41.629Z,95475.56
2022-11-25T03:30:14.026Z,95467.91
2022-11-25T03:32:42.992Z,95462.03
2022-11-25T03:35:11.960Z,95463.84
2022-11-25T03:37:40.432Z,95440.00
2022-11-25T03:40:10.258Z,95445.22
2022-11-25T03:42:38.110Z,95431.50
2022-11-25T03:45:07.535Z,95440.81
2022-11-25T03:47:37.058Z,95437.56
2022-11-25T03:50:06.090Z,95436.38
2022-11-25T03:52:34.022Z,95429.88
2022-11-25T03:55:01.985Z,95452.72
2022-11-25T03:57:29.777Z,95453.69
2022-11-25T03:59:57.600Z,95451.91
2022-11-25T04:02:25.652Z,95440.81
2022-11-25T04:04:54.789Z,95440.00
2022-11-25T04:07:22.671Z,95475.56
2022-11-25T04:09:50.655Z,95479.19
2022-11-25T04:12:36.070Z,95458.63
2022-11-25T04:15:04.105Z,95480.00
2022-11-25T04:17:31.995Z,95505.09
2022-11-25T04:20:01.532Z,95518.81
2022-11-25T04:22:29.388Z,95515.22
2022-11-25T04:24:57.258Z,95541.66
2022-11-25T04:27:25.094Z,95520.44
2022-11-25T04:29:52.961Z,95518.81
2022-11-25T04:32:20.776Z,95519.63
2022-11-25T04:34:48.626Z,95521.41
2022-11-25T04:37:17.817Z,95537.41
2022-11-25T04:39:45.778Z,95539.22
2022-11-25T04:42:31.200Z,95520.44
2022-11-25T04:45:21.437Z,95538.22
2022-11-25T04:47:47.130Z,95530.72
2022-11-25T04:50:18.715Z,95522.88
2022-11-25T04:52:48.058Z,95532.34
2022-11-25T04:55:16.212Z,95544.25
2022-11-25T04:57:44.049Z,95555.84
2022-11-25T05:00:13.278Z,95547.53
2022-11-25T05:02:41.801Z,95541.66
2022-11-25T05:05:10.405Z,95533.00
2022-11-25T05:07:38.714Z,95544.09
2022-11-25T05:10:09.573Z,95556.00
2022-11-25T05:12:37.859Z,95555.19
2022-11-25T05:15:06.516Z,95563.69
2022-11-25T05:17:34.704Z,95562.06
2022-11-25T05:20:03.191Z,95552.56
2022-11-25T05:22:33.503Z,95547.69
2022-11-25T05:25:01.647Z,95536.59
2022-11-25T05:27:30.877Z,95542.63
2022-11-25T05:29:58.710Z,95545.06
2022-11-25T05:32:26.542Z,95539.03
2022-11-25T05:34:54.376Z,95534.97
2022-11-25T05:37:24.486Z,95529.72
2022-11-25T05:39:52.963Z,95535.94
2022-11-25T05:42:21.021Z,95532.34
2022-11-25T05:44:50.322Z,95534.97
2022-11-25T05:47:18.166Z,95534.31
2022-11-25T05:49:46.095Z,95516.38
2022-11-25T05:52:13.898Z,95531.72
2022-11-25T05:54:41.678Z,95518.81
2022-11-25T05:57:09.697Z,95524.84
2022-11-25T05:59:37.620Z,95505.25
2022-11-25T06:02:07.108Z,95505.44
2022-11-25T06:04:35.463Z,95497.47
2022-11-25T06:07:03.478Z,95504.63
2022-11-25T06:09:31.342Z,95497.78
2022-11-25T06:11:59.115Z,95499.41
2022-11-25T06:14:26.919Z,95501.03
2022-11-25T06:16:54.752Z,95497.78
2022-11-25T06:19:23.962Z,95493.53
2022-11-25T06:21:51.758Z,95487.66
2022-11-25T06:24:19.691Z,95486.03
2022-11-25T06:26:47.496Z,95472.31
2022-11-25T06:29:15.260Z,95479.19
2022-11-25T06:31:43.235Z,95480.16
2022-11-25T06:34:11.179Z,95468.06
2022-11-25T06:36:40.383Z,95469.06
2022-11-25T06:39:08.734Z,95469.88
2022-11-25T06:41:36.693Z,95460.56
2022-11-25T06:44:04.650Z,95462.19
2022-11-25T06:46:32.615Z,95462.19
2022-11-25T06:49:01.631Z,95460.56
2022-11-25T06:51:29.412Z,95470.69
2022-11-25T06:53:59.003Z,95466.44
2022-11-25T06:56:29.033Z,95467.41
2022-11-25T06:58:57.053Z,95470.69
2022-11-25T07:01:26.443Z,95448.19
2022-11-25T07:03:57.057Z,95473.44
2022-11-25T07:06:24.956Z,95460.56
2022-11-25T07:08:53.060Z,95449.47
2022-11-25T07:11:24.407Z,95463.16
2022-11-25T07:13:53.436Z,95469.88
2022-11-25T07:16:21.296Z,95470.69
2022-11-25T07:18:49.237Z,95479.19
2022-11-25T07:21:20.164Z,95489.63
2022-11-25T07:23:48.773Z,95494.84
2022-11-25T07:26:19.595Z,95507.88
2022-11-25T07:28:49.789Z,95523.88
2022-11-25T07:31:24.732Z,95536.59
2022-11-25T07:33:58.061Z,95562.06
2022-11-25T07:36:26.848Z,95585.56
2022-11-25T07:38:54.851Z,95617.09
2022-11-25T07:41:24.762Z,95648.59
2022-11-25T07:43:55.483Z,95655.47
2022-11-25T07:46:27.392Z,95675.72
2022-11-25T07:48:56.934Z,95696.81
2022-11-25T07:51:27.550Z,95707.25
2022-11-25T07:53:57.281Z,95730.78
2022-11-25T07:56:25.453Z,95742.53
2022-11-25T07:58:55.064Z,95751.03
2022-11-25T08:01:23.308Z,95754.47
2022-11-25T08:03:52.262Z,95737.00
2022-11-25T08:06:22.070Z,95748.59
2022-11-25T08:08:52.825Z,95750.38
2022-11-25T08:11:22.814Z,95755.63
2022-11-25T08:13:51.071Z,95748.59
2022-11-25T08:16:22.721Z,95752.84
2022-11-25T08:18:51.544Z,95754.63
2022-11-25T08:21:20.288Z,95746.47
2022-11-25T08:23:48.989Z,95759.69
2022-11-25T08:26:19.408Z,95765.56
2022-11-25T08:28:48.095Z,95761.16
2022-11-25T08:31:18.473Z,95774.72
2022-11-25T08:33:48.292Z,95799.56
2022-11-25T08:36:17.368Z,95818.22
2022-11-25T08:38:49.162Z,95840.47
2022-11-25T08:41:20.704Z,95862.38
2022-11-25T08:43:48.996Z,95886.88
2022-11-25T08:46:19.977Z,95918.63
2022-11-25T08:48:49.177Z,95947.09
2022-11-25T08:51:19.826Z,95960.84
2022-11-25T08:53:48.586Z,95982.94
2022-11-25T08:56:17.177Z,95955.78
2022-11-25T08:58:50.234Z,95998.16
2022-11-25T09:01:19.845Z,96003.72
2022-11-25T09:03:51.504Z,96026.28
2022-11-25T09:06:20.013Z,96039.91
2022-11-25T09:08:49.128Z,96057.75
2022-11-25T09:11:17.406Z,96063.16
2022-11-25T09:13:45.487Z,96050.38
2022-11-25T09:16:13.537Z,96076.56
2022-11-25T09:18:41.326Z,96108.81
2022-11-25T09:21:12.915Z,96129.13
2022-11-25T09:23:41.432Z,96162.06
2022-11-25T09:26:13.302Z,96136.69
2022-11-25T09:28:41.176Z,96161.25
2022-11-25T09:31:10.036Z,96193.03
2022-11-25T09:33:38.663Z,96203.19
2022-11-25T09:36:07.052Z,96215.97
2022-11-25T09:38:41.690Z,96227.75
2022-11-25T09:41:39.956Z,96233.84
2022-11-25T09:44:35.722Z,96231.38
2022-11-25T09:47:10.767Z,96233.00
2022-11-25T09:49:56.730Z,96244.00
2022-11-25T09:52:30.865Z,96291.53
2022-11-25T09:55:04.814Z,96313.69
2022-11-25T09:57:48.339Z,96418.66
2022-11-25T10:00:18.972Z,96452.78
2022-11-25T10:02:55.363Z,96476.41
2022-11-25T10:05:26.702Z,96519.44
2022-11-25T10:07:59.333Z,96541.75
2022-11-25T10:10:32.182Z,96617.16
2022-11-25T10:13:00.963Z,96640.97
2022-11-25T10:15:34.475Z,96658.03
2022-11-25T10:18:07.254Z,96716.72
2022-11-25T10:20:37.896Z,96771.44
2022-11-25T10:23:11.783Z,96836.25
2022-11-25T10:25:46.840Z,96866.84
2022-11-25T10:28:20.295Z,96867.19
2022-11-25T10:31:00.179Z,96892.69
2022-11-25T10:33:31.818Z,96964.59
2022-11-25T10:36:02.474Z,96970.53
2022-11-25T10:38:37.086Z,97033.88
2022-11-25T10:41:06.788Z,97058.75
2022-11-25T10:43:35.377Z,97095.34
2022-11-25T10:46:12.580Z,97060.28
2022-11-25T10:48:55.296Z,97080.69
2022-11-25T10:51:37.040Z,97083.31
2022-11-25T10:54:15.040Z,97089.56
2022-11-25T10:56:51.113Z,97042.44
2022-11-25T10:59:30.880Z,96996.34
2022-11-25T11:02:22.501Z,96961.31
2022-11-25T11:04:55.543Z,96892.84
2022-11-25T11:07:24.655Z,96823.72
2022-11-25T11:09:53.707Z,96845.81
2022-11-25T11:12:25.611Z,96846.78
2022-11-25T11:14:54.240Z,96834.91
2022-11-25T11:17:36.668Z,96823.06
2022-11-25T11:20:22.795Z,96798.09
2022-11-25T11:22:57.571Z,96782.78
2022-11-25T11:25:31.914Z,96765.69
2022-11-25T11:28:01.541Z,96759.94
2022-11-25T11:30:30.945Z,96731.50
2022-11-25T11:33:05.110Z,96725.44
2022-11-25T11:35:48.754Z,96729.88
2022-11-25T11:38:26.527Z,96742.84
2022-11-25T11:41:01.498Z,96740.38
2022-11-25T11:43:43.550Z,96720.34
2022-11-25T11:46:27.581Z,96684.66
2022-11-25T11:49:06.766Z,96672.00
2022-11-25T11:51:41.796Z,96658.53
2022-11-25T11:54:14.904Z,96660.00
2022-11-25T11:56:51.994Z,96655.75
2022-11-25T11:59:37.791Z,96629.47
2022-11-25T12:02:17.767Z,96632.09
2022-11-25T12:04:52.335Z,96601.50
2022-11-25T12:07:28.195Z,96616.66
2022-11-25T12:10:00.461Z,96611.41
2022-11-25T12:12:34.962Z,96560.31
2022-11-25T12:15:13.689Z,96568.84
2022-11-25T12:17:47.845Z,96555.88
2022-11-25T12:20:21.474Z,96555.22
2022-11-25T12:22:55.106Z,96538.13
2022-11-25T12:25:25.690Z,96518.41
2022-11-25T12:28:00.022Z,96540.75
2022-11-25T12:30:35.979Z,96503.19
2022-11-25T12:33:11.025Z,96485.25
2022-11-25T12:35:51.035Z,96473.44
2022-11-25T12:38:27.003Z,96437.69
2022-11-25T12:41:02.613Z,96438.50
2022-11-25T12:43:41.902Z,96426.84
2022-11-25T12:46:20.214Z,96397.66
2022-11-25T12:48:48.093Z,96403.56
2022-11-25T12:51:24.731Z,96390.09
2022-11-25T12:54:07.698Z,96396.84
2022-11-25T12:56:53.956Z,96393.41
2022-11-25T12:59:48.449Z,96385.69
2022-11-25T13:02:36.954Z,96374.66
2022-11-25T13:08:31.067Z,96342.53
2022-11-25T13:10:55.717Z,96326.78
2022-11-25T13:11:12.618Z,96307.94
2022-11-25T13:13:54.049Z,96266.44
2022-11-25T13:16:23.850Z,96257.59
2022-11-25T13:18:54.640Z,96234.97
2022-11-25T13:21:24.251Z,96220.56
2022-11-25T13:23:56.133Z,96218.75
2022-11-25T13:26:51.100Z,96222.19
2022-11-25T13:30:01.822Z,96228.25
2022-11-25T13:32:32.904Z,96221.53
2022-11-25T13:35:40.247Z,96200.91
2022-11-25T13:38:37.716Z,96180.59
2022-11-25T13:41:23.621Z,96144.03
2022-11-25T13:44:02.041Z,96113.41
2022-11-25T13:46:39.728Z,96079.38
2022-11-25T13:49:26.360Z,96045.31
2022-11-25T13:51:57.040Z,96004.53
2022-11-25T13:54:31.835Z,95969.69
2022-11-25T13:57:15.708Z,95941.72
2022-11-25T13:59:52.616Z,95907.03
2022-11-25T14:02:45.413Z,95866.31
2022-11-25T14:05:54.993Z,95799.91
2022-11-25T14:08:31.839Z,95778.66
2022-11-25T14:11:18.487Z,95760.03
2022-11-25T14:14:05.557Z,95744.84
2022-11-25T14:16:46.599Z,95726.88
2022-11-25T14:19:54.723Z,95721.16
2022-11-25T14:22:39.818Z,95707.09
2022-11-25T14:25:17.578Z,95716.91
2022-11-25T14:27:48.320Z,95711.03
2022-11-25T14:30:18.071Z,95713.66
2022-11-25T14:32:53.433Z,95711.69
2022-11-25T14:35:25.223Z,95718.72
2022-11-25T14:38:01.270Z,95708.41
2022-11-25T14:40:36.200Z,95713.66
2022-11-25T14:43:06.879Z,95722.16
2022-11-25T14:45:36.270Z,95707.25
2022-11-25T14:48:16.772Z,95704.81
2022-11-25T14:50:56.435Z,95706.75
2022-11-25T14:53:26.563Z,95702.50
2022-11-25T14:55:55.039Z,95695.81
2022-11-25T14:58:23.474Z,95682.91
2022-11-25T15:00:52.806Z,95676.22
2022-11-25T15:03:21.555Z,95673.59
2022-11-25T15:05:57.174Z,95668.53
2022-11-25T15:08:27.434Z,95661.69
2022-11-25T15:10:58.422Z,95659.41
2022-11-25T15:13:33.350Z,95667.72
2022-11-25T15:16:07.981Z,95670.34
2022-11-25T15:18:36.984Z,95644.06
2022-11-25T15:21:05.626Z,95653.19
2022-11-25T15:23:38.909Z,95662.03
2022-11-25T15:26:18.911Z,95654.19
2022-11-25T15:28:48.270Z,95655.00
2022-11-25T15:31:21.014Z,95666.28
2022-11-25T15:33:54.894Z,95670.34
2022-11-25T15:36:24.247Z,95661.03
2022-11-25T15:38:53.759Z,95670.34
2022-11-25T15:41:32.056Z,95665.13
2022-11-25T15:44:02.568Z,95677.03
2022-11-25T15:46:33.690Z,95656.44
2022-11-25T15:49:04.340Z,95651.56
2022-11-25T15:51:42.778Z,95647.31
2022-11-25T15:54:20.083Z,95649.75
2022-11-25T15:56:50.413Z,95661.69
2022-11-25T15:59:42.158Z,95657.44
2022-11-25T16:02:53.599Z,95656.63
2022-11-25T16:05:39.316Z,95659.25
2022-11-25T16:08:26.798Z,95666.75
2022-11-25T16:10:59.300Z,95666.75
2022-11-25T16:13:37.159Z,95679.66
2022-11-25T16:16:21.088Z,95694.19
2022-11-25T16:19:18.423Z,95702.34
2022-11-25T16:22:01.266Z,95675.09
2022-11-25T16:24:42.563Z,95696.63
2022-11-25T16:27:20.970Z,95694.84
2022-11-25T16:29:51.632Z,95693.84
2022-11-25T16:32:21.561Z,95686.16
2022-11-25T16:34:50.043Z,95691.41
2022-11-25T16:37:17.891Z,95696.63
2022-11-25T16:39:45.844Z,95712.81
2022-11-25T16:42:22.692Z,95692.22
2022-11-25T16:44:52.655Z,95689.59
2022-11-25T16:47:21.860Z,95682.44
2022-11-25T16:49:50.164Z,95688.97
2022-11-25T16:52:18.110Z,95695.66
2022-11-25T16:54:47.403Z,95723.13
2022-11-25T16:57:20.051Z,95717.72
2022-11-25T16:59:57.292Z,95716.09
2022-11-25T17:02:27.061Z,95723.78
2022-11-25T17:04:54.877Z,95727.03
2022-11-25T17:07:38.598Z,95727.84
2022-11-25T17:10:08.801Z,95725.41
2022-11-25T17:12:38.593Z,95727.03
2022-11-25T17:15:15.205Z,95725.25
2022-11-25T17:17:45.866Z,95722.97
2022-11-25T17:20:17.145Z,95725.41
2022-11-25T17:22:45.072Z,95728.84
2022-11-25T17:25:13.622Z,95727.84
2022-11-25T17:27:42.694Z,95728.03
2022-11-25T17:30:18.127Z,95696.63
2022-11-25T17:32:46.820Z,95677.03
2022-11-25T17:35:19.754Z,95676.56
2022-11-25T17:37:48.357Z,95679.66
2022-11-25T17:40:16.912Z,95678.84
2022-11-25T17:42:48.403Z,95695.66
2022-11-25T17:45:20.356Z,95691.41
2022-11-25T17:47:48.619Z,95682.91
2022-11-25T17:50:19.186Z,95680.63
2022-11-25T17:52:47.005Z,95681.28
2022-11-25T17:55:19.432Z,95695.00
2022-11-25T17:57:47.779Z,95697.44
2022-11-25T18:00:19.720Z,95685.53
2022-11-25T18:02:48.107Z,95686.50
2022-11-25T18:05:20.561Z,95683.25
2022-11-25T18:07:48.788Z,95708.72
2022-11-25T18:10:18.559Z,95710.06
2022-11-25T18:12:48.337Z,95712.66
2022-11-25T18:15:20.144Z,95714.47
2022-11-25T18:17:49.987Z,95716.91
2022-11-25T18:20:20.214Z,95710.06
2022-11-25T18:22:49.263Z,95716.91
2022-11-25T18:25:18.924Z,95712.66
2022-11-25T18:27:48.703Z,95722.16
2022-11-25T18:30:20.401Z,95721.81
2022-11-25T18:32:48.547Z,95723.78
2022-11-25T18:35:18.706Z,95721.00
2022-11-25T18:37:46.792Z,95710.06
2022-11-25T18:40:15.874Z,95716.28
2022-11-25T18:42:46.161Z,95714.31
2022-11-25T18:45:21.515Z,95716.91
2022-11-25T18:47:49.389Z,95684.53
2022-11-25T18:50:19.727Z,95684.88
2022-11-25T18:52:47.955Z,95678.03
2022-11-25T18:55:18.078Z,95672.78
2022-11-25T18:57:48.184Z,95664.16
2022-11-25T19:00:36.242Z,95661.03
2022-11-25T19:03:05.019Z,95650.91
2022-11-25T19:05:34.315Z,95647.66
2022-11-25T19:08:03.502Z,95636.38
2022-11-25T19:10:35.115Z,95628.88
2022-11-25T19:13:06.422Z,95635.91
2022-11-25T19:15:37.525Z,95624.63
2022-11-25T19:18:07.882Z,95634.91
2022-11-25T19:20:35.784Z,95628.88
2022-11-25T19:23:17.087Z,95645.03
2022-11-25T19:25:45.638Z,95640.78
2022-11-25T19:28:16.193Z,95642.44
2022-11-25T19:30:47.531Z,95653.34
2022-11-25T19:33:23.468Z,95659.41
2022-11-25T19:35:51.588Z,95677.22
2022-11-25T19:38:25.210Z,95678.03
2022-11-25T19:40:53.483Z,95697.44
2022-11-25T19:43:22.788Z,95701.88
2022-11-25T19:45:52.045Z,95696.63
2022-11-25T19:48:21.886Z,95694.66
2022-11-25T19:50:52.007Z,95681.78
2022-11-25T19:53:23.031Z,95697.44
2022-11-25T19:55:50.868Z,95701.69
2022-11-25T19:58:18.761Z,95697.44
2022-11-25T20:00:48.640Z,95703.50
2022-11-25T20:03:22.101Z,95709.53
2022-11-25T20:05:51.558Z,95705.13
2022-11-25T20:08:20.823Z,95716.91
2022-11-25T20:10:48.847Z,95722.97
2022-11-25T20:13:16.759Z,95729.66
2022-11-25T20:15:46.104Z,95699.28
2022-11-25T20:18:18.336Z,95721.34
2022-11-25T20:20:50.074Z,95734.88
2022-11-25T20:23:26.188Z,95729.66
2022-11-25T20:25:54.482Z,95736.53
2022-11-25T20:28:25.116Z,95739.13
2022-11-25T20:30:54.079Z,95724.59
2022-11-25T20:33:24.949Z,95721.16
2022-11-25T20:36:00.754Z,95723.78
2022-11-25T20:38:31.109Z,95722.97
2022-11-25T20:41:00.914Z,95716.91
2022-11-25T20:43:30.800Z,95716.28
2022-11-25T20:46:00.478Z,95711.69
2022-11-25T20:48:29.741Z,95720.53
2022-11-25T20:51:01.401Z,95729.00
2022-11-25T20:53:32.349Z,95723.78
2022-11-25T20:56:00.871Z,95730.66
2022-11-25T20:58:30.727Z,95734.25
2022-11-25T21:00:59.657Z,95722.16
2022-11-25T21:03:27.719Z,95716.09
2022-11-25T21:05:58.099Z,95700.56
2022-11-25T21:08:31.573Z,95713.66
2022-11-25T21:11:00.191Z,95722.97
2022-11-25T21:13:30.030Z,95735.88
2022-11-25T21:15:59.265Z,95733.25
2022-11-25T21:18:27.143Z,95719.53
2022-11-25T21:20:58.196Z,95729.81
2022-11-25T21:23:31.399Z,95739.13
2022-11-25T21:26:03.938Z,95743.22
2022-11-25T21:28:33.887Z,95748.44
2022-11-25T21:31:04.841Z,95745.66
2022-11-25T21:33:36.478Z,95750.91
2022-11-25T21:36:04.949Z,95750.25
2022-11-25T21:38:34.067Z,95746.00
2022-11-25T21:41:01.925Z,95744.38
2022-11-25T21:43:33.488Z,95736.69
2022-11-25T21:46:04.434Z,95724.13
2022-11-25T21:48:32.790Z,95715.28
2022-11-25T21:51:00.706Z,95718.03
2022-11-25T21:53:30.997Z,95717.22
2022-11-25T21:56:04.288Z,95710.38
2022-11-25T21:58:32.830Z,95702.50
2022-11-25T22:01:03.116Z,95702.69
2022-11-25T22:03:32.766Z,95699.44
2022-11-25T22:06:00.831Z,95691.75
2022-11-25T22:08:31.247Z,95685.69
2022-11-25T22:10:59.221Z,95691.75
2022-11-25T22:13:35.143Z,95691.09
2022-11-25T22:16:03.241Z,95680.63
2022-11-25T22:18:33.809Z,95684.25
2022-11-25T22:21:02.541Z,95680.00
2022-11-25T22:23:30.902Z,95667.91
2022-11-25T22:25:59.252Z,95663.00
2022-11-25T22:28:30.822Z,95654.34
2022-11-25T22:31:02.098Z,95663.81
2022-11-25T22:33:32.173Z,95673.13
2022-11-25T22:36:00.645Z,95674.75
2022-11-25T22:38:30.049Z,95673.78
2022-11-25T22:41:00.625Z,95675.75
2022-11-25T22:43:33.735Z,95683.25
2022-11-25T22:46:02.141Z,95685.88
2022-11-25T22:48:33.117Z,95681.63
2022-11-25T22:51:01.000Z,95678.19
2022-11-25T22:53:29.235Z,95691.09
2022-11-25T22:55:58.239Z,95686.50
2022-11-25T22:58:27.676Z,95680.63
2022-11-25T23:00:57.597Z,95691.09
2022-11-25T23:03:29.283Z,95679.69
2022-11-25T23:05:57.829Z,95707.09
2022-11-25T23:08:27.766Z,95705.13
2022-11-25T23:10:56.332Z,95723.28
2022-11-25T23:13:25.009Z,95717.22
2022-11-25T23:15:54.493Z,95713.66
2022-11-25T23:18:27.334Z,95724.13
2022-11-25T23:20:55.411Z,95705.81
2022-11-25T23:23:27.001Z,95721.34
2022-11-25T23:25:55.299Z,95722.47
2022-11-25T23:28:23.549Z,95735.88
2022-11-25T23:30:53.584Z,95741.13
2022-11-25T23:33:31.410Z,95735.88
2022-11-25T23:36:04.774Z,95738.84
2022-11-25T23:38:39.485Z,95718.25
2022-11-25T23:41:07.366Z,95747.63
2022-11-25T23:43:35.466Z,95746.34
2022-11-25T23:46:03.564Z,95751.25
2022-11-25T23:48:33.197Z,95747.66
2022-11-25T23:51:01.526Z,95755.31
2022-11-25T23:53:32.526Z,95746.81
2022-11-25T23:56:00.851Z,95746.34
2022-11-25T23:58:29.051Z,95746.81
